sensor_id;sensor_type;location;lat;lon;timestamp;P1;durP1;ratioP1;P2;durP2;ratioP2
36185;SDS011;22228;53.222;7.446;2023-03-21T00:00:26;61.27;;;41.40;;
36185;SDS011;22228;53.222;7.446;2023-03-21T00:02:46;57.13;;;39.50;;
36185;SDS011;22228;53.222;7.446;2023-03-21T00:05:07;60.23;;;42.33;;
36185;SDS011;22228;53.222;7.446;2023-03-21T00:07:27;58.13;;;40.60;;
36185;SDS011;22228;53.222;7.446;2023-03-21T00:09:48;53.00;;;37.77;;
36185;SDS011;22228;53.222;7.446;2023-03-21T00:12:08;54.30;;;37.93;;
36185;SDS011;22228;53.222;7.446;2023-03-21T00:14:29;57.40;;;39.53;;
36185;SDS011;22228;53.222;7.446;2023-03-21T00:16:50;54.60;;;38.93;;
36185;SDS011;22228;53.222;7.446;2023-03-21T00:19:11;53.60;;;38.10;;
36185;SDS011;22228;53.222;7.446;2023-03-21T00:21:32;52.10;;;39.10;;
36185;SDS011;22228;53.222;7.446;2023-03-21T00:23:55;54.93;;;38.97;;
36185;SDS011;22228;53.222;7.446;2023-03-21T00:26:16;56.10;;;38.10;;
36185;SDS011;22228;53.222;7.446;2023-03-21T00:28:37;53.90;;;38.13;;
36185;SDS011;22228;53.222;7.446;2023-03-21T00:30:59;53.67;;;37.90;;
36185;SDS011;22228;53.222;7.446;2023-03-21T00:33:21;52.10;;;37.60;;
36185;SDS011;22228;53.222;7.446;2023-03-21T00:35:44;51.47;;;38.30;;
36185;SDS011;22228;53.222;7.446;2023-03-21T00:38:05;49.60;;;36.40;;
36185;SDS011;22228;53.222;7.446;2023-03-21T00:40:26;57.53;;;39.73;;
36185;SDS011;22228;53.222;7.446;2023-03-21T00:42:46;54.17;;;38.23;;
36185;SDS011;22228;53.222;7.446;2023-03-21T00:45:07;56.87;;;37.63;;
36185;SDS011;22228;53.222;7.446;2023-03-21T00:47:28;52.07;;;37.23;;
36185;SDS011;22228;53.222;7.446;2023-03-21T00:49:50;51.23;;;36.87;;
36185;SDS011;22228;53.222;7.446;2023-03-21T00:52:10;51.67;;;36.20;;
36185;SDS011;22228;53.222;7.446;2023-03-21T00:54:31;54.30;;;37.37;;
36185;SDS011;22228;53.222;7.446;2023-03-21T00:56:51;56.40;;;38.33;;
36185;SDS011;22228;53.222;7.446;2023-03-21T00:59:12;56.93;;;38.73;;
36185;SDS011;22228;53.222;7.446;2023-03-21T01:01:32;53.57;;;38.07;;
36185;SDS011;22228;53.222;7.446;2023-03-21T01:03:53;53.30;;;39.37;;
36185;SDS011;22228;53.222;7.446;2023-03-21T01:06:24;54.03;;;37.73;;
36185;SDS011;22228;53.222;7.446;2023-03-21T01:08:45;56.73;;;37.63;;
36185;SDS011;22228;53.222;7.446;2023-03-21T01:11:07;52.60;;;36.00;;
36185;SDS011;22228;53.222;7.446;2023-03-21T01:13:29;52.23;;;37.23;;
36185;SDS011;22228;53.222;7.446;2023-03-21T04:02:54;45.70;;;32.47;;
36185;SDS011;22228;53.222;7.446;2023-03-21T04:05:18;45.87;;;34.07;;
36185;SDS011;22228;53.222;7.446;2023-03-21T04:07:39;43.63;;;33.23;;
36185;SDS011;22228;53.222;7.446;2023-03-21T04:10:00;45.77;;;33.40;;
36185;SDS011;22228;53.222;7.446;2023-03-21T04:12:20;42.13;;;31.67;;
36185;SDS011;22228;53.222;7.446;2023-03-21T04:15:09;46.50;;;32.47;;
36185;SDS011;22228;53.222;7.446;2023-03-21T04:17:35;46.63;;;32.93;;
36185;SDS011;22228;53.222;7.446;2023-03-21T04:19:57;44.37;;;32.30;;
36185;SDS011;22228;53.222;7.446;2023-03-21T04:22:17;42.07;;;30.13;;
36185;SDS011;22228;53.222;7.446;2023-03-21T04:24:39;41.43;;;30.03;;
36185;SDS011;22228;53.222;7.446;2023-03-21T04:27:00;42.67;;;29.70;;
36185;SDS011;22228;53.222;7.446;2023-03-21T04:29:31;43.67;;;30.30;;
36185;SDS011;22228;53.222;7.446;2023-03-21T04:31:51;45.53;;;29.07;;
36185;SDS011;22228;53.222;7.446;2023-03-21T04:34:12;44.20;;;29.50;;
36185;SDS011;22228;53.222;7.446;2023-03-21T04:36:39;49.60;;;31.37;;
36185;SDS011;22228;53.222;7.446;2023-03-21T04:39:02;51.93;;;31.90;;
36185;SDS011;22228;53.222;7.446;2023-03-21T04:41:29;43.20;;;28.43;;
36185;SDS011;22228;53.222;7.446;2023-03-21T04:43:50;48.67;;;29.70;;
36185;SDS011;22228;53.222;7.446;2023-03-21T04:46:11;52.73;;;30.77;;
36185;SDS011;22228;53.222;7.446;2023-03-21T04:48:32;46.00;;;28.80;;
36185;SDS011;22228;53.222;7.446;2023-03-21T04:50:53;48.03;;;29.87;;
36185;SDS011;22228;53.222;7.446;2023-03-21T04:53:15;45.67;;;29.00;;
36185;SDS011;22228;53.222;7.446;2023-03-21T04:55:36;45.97;;;29.87;;
36185;SDS011;22228;53.222;7.446;2023-03-21T04:57:57;50.03;;;29.70;;
36185;SDS011;22228;53.222;7.446;2023-03-21T05:00:17;56.00;;;31.30;;
36185;SDS011;22228;53.222;7.446;2023-03-21T05:02:39;47.97;;;29.37;;
36185;SDS011;22228;53.222;7.446;2023-03-21T05:05:00;45.33;;;28.57;;
36185;SDS011;22228;53.222;7.446;2023-03-21T05:07:20;45.50;;;28.10;;
36185;SDS011;22228;53.222;7.446;2023-03-21T05:09:45;47.00;;;29.30;;
36185;SDS011;22228;53.222;7.446;2023-03-21T05:12:09;45.43;;;28.00;;
36185;SDS011;22228;53.222;7.446;2023-03-21T05:14:29;44.67;;;29.57;;
36185;SDS011;22228;53.222;7.446;2023-03-21T05:16:51;45.70;;;28.90;;
36185;SDS011;22228;53.222;7.446;2023-03-21T05:19:14;47.40;;;30.00;;
36185;SDS011;22228;53.222;7.446;2023-03-21T05:21:35;46.27;;;29.07;;
36185;SDS011;22228;53.222;7.446;2023-03-21T05:24:02;45.07;;;29.00;;
36185;SDS011;22228;53.222;7.446;2023-03-21T05:26:25;45.60;;;28.43;;
36185;SDS011;22228;53.222;7.446;2023-03-21T05:28:59;44.83;;;29.07;;
36185;SDS011;22228;53.222;7.446;2023-03-21T05:31:22;40.87;;;26.97;;
36185;SDS011;22228;53.222;7.446;2023-03-21T05:33:48;41.30;;;27.10;;
36185;SDS011;22228;53.222;7.446;2023-03-21T05:36:11;40.03;;;26.33;;
36185;SDS011;22228;53.222;7.446;2023-03-21T05:38:32;40.77;;;26.90;;
36185;SDS011;22228;53.222;7.446;2023-03-21T05:40:53;38.07;;;25.23;;
36185;SDS011;22228;53.222;7.446;2023-03-21T05:43:15;39.67;;;26.27;;
36185;SDS011;22228;53.222;7.446;2023-03-21T05:45:35;39.70;;;26.53;;
36185;SDS011;22228;53.222;7.446;2023-03-21T05:47:56;36.77;;;24.63;;
36185;SDS011;22228;53.222;7.446;2023-03-21T05:50:20;37.17;;;25.83;;
36185;SDS011;22228;53.222;7.446;2023-03-21T05:52:54;36.47;;;24.90;;
36185;SDS011;22228;53.222;7.446;2023-03-21T05:55:15;39.17;;;26.23;;
36185;SDS011;22228;53.222;7.446;2023-03-21T05:57:36;37.33;;;25.03;;
36185;SDS011;22228;53.222;7.446;2023-03-21T06:00:02;39.37;;;26.87;;
36185;SDS011;22228;53.222;7.446;2023-03-21T06:02:34;41.17;;;27.40;;
36185;SDS011;22228;53.222;7.446;2023-03-21T06:05:00;47.03;;;27.37;;
36185;SDS011;22228;53.222;7.446;2023-03-21T06:07:21;43.47;;;26.73;;
36185;SDS011;22228;53.222;7.446;2023-03-21T06:09:42;40.30;;;26.97;;
36185;SDS011;22228;53.222;7.446;2023-03-21T06:12:03;42.60;;;26.83;;
36185;SDS011;22228;53.222;7.446;2023-03-21T06:14:42;37.17;;;26.13;;
36185;SDS011;22228;53.222;7.446;2023-03-21T06:17:23;41.00;;;26.43;;
36185;SDS011;22228;53.222;7.446;2023-03-21T06:19:48;41.33;;;26.77;;
36185;SDS011;22228;53.222;7.446;2023-03-21T06:22:22;41.83;;;27.93;;
36185;SDS011;22228;53.222;7.446;2023-03-21T06:24:42;41.23;;;28.20;;
36185;SDS011;22228;53.222;7.446;2023-03-21T06:27:03;45.13;;;30.00;;
36185;SDS011;22228;53.222;7.446;2023-03-21T06:29:35;44.33;;;29.77;;
36185;SDS011;22228;53.222;7.446;2023-03-21T06:31:56;50.00;;;31.57;;
36185;SDS011;22228;53.222;7.446;2023-03-21T06:34:18;46.37;;;32.73;;
36185;SDS011;22228;53.222;7.446;2023-03-21T06:36:38;48.27;;;32.37;;
36185;SDS011;22228;53.222;7.446;2023-03-21T06:38:59;51.73;;;34.47;;
36185;SDS011;22228;53.222;7.446;2023-03-21T06:41:20;50.47;;;35.53;;
36185;SDS011;22228;53.222;7.446;2023-03-21T06:43:51;45.13;;;33.17;;
36185;SDS011;22228;53.222;7.446;2023-03-21T06:46:12;53.87;;;35.37;;
36185;SDS011;22228;53.222;7.446;2023-03-21T06:48:33;54.63;;;35.47;;
36185;SDS011;22228;53.222;7.446;2023-03-21T06:50:56;54.47;;;35.63;;
36185;SDS011;22228;53.222;7.446;2023-03-21T06:53:20;51.97;;;35.47;;
36185;SDS011;22228;53.222;7.446;2023-03-21T06:56:04;50.43;;;34.63;;
36185;SDS011;22228;53.222;7.446;2023-03-21T06:58:26;46.83;;;32.83;;
36185;SDS011;22228;53.222;7.446;2023-03-21T07:00:47;46.13;;;33.60;;
36185;SDS011;22228;53.222;7.446;2023-03-21T07:03:08;51.70;;;35.13;;
36185;SDS011;22228;53.222;7.446;2023-03-21T07:05:29;46.20;;;33.20;;
36185;SDS011;22228;53.222;7.446;2023-03-21T07:07:50;48.53;;;33.37;;
36185;SDS011;22228;53.222;7.446;2023-03-21T07:10:11;50.20;;;32.63;;
36185;SDS011;22228;53.222;7.446;2023-03-21T07:12:40;52.17;;;34.70;;
36185;SDS011;22228;53.222;7.446;2023-03-21T07:15:16;49.97;;;33.53;;
36185;SDS011;22228;53.222;7.446;2023-03-21T07:17:38;47.37;;;31.97;;
36185;SDS011;22228;53.222;7.446;2023-03-21T07:19:58;42.60;;;31.33;;
36185;SDS011;22228;53.222;7.446;2023-03-21T07:22:19;45.17;;;31.70;;
36185;SDS011;22228;53.222;7.446;2023-03-21T07:24:41;48.63;;;33.00;;
36185;SDS011;22228;53.222;7.446;2023-03-21T07:27:01;44.80;;;31.17;;
36185;SDS011;22228;53.222;7.446;2023-03-21T07:29:22;40.10;;;28.97;;
36185;SDS011;22228;53.222;7.446;2023-03-21T07:31:43;40.10;;;29.20;;
36185;SDS011;22228;53.222;7.446;2023-03-21T07:34:03;42.33;;;28.73;;
36185;SDS011;22228;53.222;7.446;2023-03-21T07:36:24;40.93;;;27.83;;
36185;SDS011;22228;53.222;7.446;2023-03-21T07:38:45;36.33;;;27.60;;
36185;SDS011;22228;53.222;7.446;2023-03-21T07:41:09;38.67;;;26.67;;
36185;SDS011;22228;53.222;7.446;2023-03-21T07:43:29;35.67;;;26.37;;
36185;SDS011;22228;53.222;7.446;2023-03-21T07:45:53;35.70;;;26.30;;
36185;SDS011;22228;53.222;7.446;2023-03-21T07:48:15;30.53;;;25.07;;
36185;SDS011;22228;53.222;7.446;2023-03-21T07:50:36;31.80;;;25.07;;
36185;SDS011;22228;53.222;7.446;2023-03-21T07:52:59;32.33;;;25.67;;
36185;SDS011;22228;53.222;7.446;2023-03-21T07:55:19;34.67;;;25.17;;
36185;SDS011;22228;53.222;7.446;2023-03-21T07:57:41;32.40;;;24.90;;
36185;SDS011;22228;53.222;7.446;2023-03-21T08:00:02;32.97;;;24.07;;
36185;SDS011;22228;53.222;7.446;2023-03-21T08:02:31;32.80;;;24.83;;
36185;SDS011;22228;53.222;7.446;2023-03-21T08:04:52;29.13;;;22.83;;
36185;SDS011;22228;53.222;7.446;2023-03-21T08:07:12;28.63;;;22.87;;
36185;SDS011;22228;53.222;7.446;2023-03-21T08:09:33;28.37;;;22.47;;
36185;SDS011;22228;53.222;7.446;2023-03-21T08:11:53;28.10;;;20.90;;
36185;SDS011;22228;53.222;7.446;2023-03-21T08:14:15;25.47;;;20.77;;
36185;SDS011;22228;53.222;7.446;2023-03-21T08:16:36;24.67;;;20.10;;
36185;SDS011;22228;53.222;7.446;2023-03-21T08:18:57;24.60;;;19.73;;
36185;SDS011;22228;53.222;7.446;2023-03-21T08:21:17;25.03;;;20.00;;
36185;SDS011;22228;53.222;7.446;2023-03-21T08:23:38;25.30;;;20.30;;
36185;SDS011;22228;53.222;7.446;2023-03-21T08:25:58;22.90;;;19.57;;
36185;SDS011;22228;53.222;7.446;2023-03-21T08:28:20;24.80;;;20.17;;
36185;SDS011;22228;53.222;7.446;2023-03-21T08:30:43;21.80;;;18.27;;
36185;SDS011;22228;53.222;7.446;2023-03-21T08:33:03;22.57;;;18.07;;
36185;SDS011;22228;53.222;7.446;2023-03-21T08:35:24;22.57;;;17.77;;
36185;SDS011;22228;53.222;7.446;2023-03-21T08:37:44;20.33;;;17.33;;
36185;SDS011;22228;53.222;7.446;2023-03-21T08:40:06;22.00;;;17.67;;
36185;SDS011;22228;53.222;7.446;2023-03-21T08:42:29;19.40;;;16.13;;
36185;SDS011;22228;53.222;7.446;2023-03-21T08:44:49;19.30;;;16.30;;
36185;SDS011;22228;53.222;7.446;2023-03-21T08:47:11;18.77;;;16.23;;
36185;SDS011;22228;53.222;7.446;2023-03-21T08:49:31;21.33;;;15.87;;
36185;SDS011;22228;53.222;7.446;2023-03-21T08:51:54;19.17;;;15.23;;
36185;SDS011;22228;53.222;7.446;2023-03-21T08:54:18;17.83;;;15.43;;
36185;SDS011;22228;53.222;7.446;2023-03-21T08:56:39;17.60;;;15.33;;
36185;SDS011;22228;53.222;7.446;2023-03-21T08:59:00;15.97;;;14.30;;
36185;SDS011;22228;53.222;7.446;2023-03-21T09:01:20;15.97;;;13.23;;
36185;SDS011;22228;53.222;7.446;2023-03-21T09:03:42;15.53;;;13.63;;
36185;SDS011;22228;53.222;7.446;2023-03-21T09:06:03;13.97;;;12.57;;
36185;SDS011;22228;53.222;7.446;2023-03-21T09:08:24;13.87;;;12.40;;
36185;SDS011;22228;53.222;7.446;2023-03-21T09:10:45;14.70;;;12.90;;
36185;SDS011;22228;53.222;7.446;2023-03-21T09:13:05;13.80;;;12.40;;
36185;SDS011;22228;53.222;7.446;2023-03-21T09:15:27;15.30;;;13.17;;
36185;SDS011;22228;53.222;7.446;2023-03-21T09:17:47;14.90;;;13.30;;
36185;SDS011;22228;53.222;7.446;2023-03-21T09:20:11;14.43;;;13.03;;
36185;SDS011;22228;53.222;7.446;2023-03-21T09:22:36;15.07;;;13.40;;
36185;SDS011;22228;53.222;7.446;2023-03-21T09:24:57;17.40;;;13.97;;
36185;SDS011;22228;53.222;7.446;2023-03-21T09:27:25;14.73;;;13.27;;
36185;SDS011;22228;53.222;7.446;2023-03-21T09:29:46;13.20;;;11.80;;
36185;SDS011;22228;53.222;7.446;2023-03-21T09:32:06;14.87;;;13.27;;
36185;SDS011;22228;53.222;7.446;2023-03-21T09:34:27;16.30;;;13.73;;
36185;SDS011;22228;53.222;7.446;2023-03-21T09:36:49;14.93;;;13.30;;
36185;SDS011;22228;53.222;7.446;2023-03-21T09:39:14;13.90;;;12.43;;
36185;SDS011;22228;53.222;7.446;2023-03-21T09:41:41;15.17;;;13.67;;
36185;SDS011;22228;53.222;7.446;2023-03-21T09:44:14;14.47;;;13.00;;
36185;SDS011;22228;53.222;7.446;2023-03-21T09:46:55;13.13;;;11.83;;
36185;SDS011;22228;53.222;7.446;2023-03-21T09:49:24;13.90;;;12.47;;
36185;SDS011;22228;53.222;7.446;2023-03-21T09:51:51;15.60;;;12.70;;
36185;SDS011;22228;53.222;7.446;2023-03-21T09:54:16;15.03;;;13.43;;
36185;SDS011;22228;53.222;7.446;2023-03-21T09:56:40;12.93;;;11.73;;
36185;SDS011;22228;53.222;7.446;2023-03-21T09:59:03;16.00;;;14.30;;
36185;SDS011;22228;53.222;7.446;2023-03-21T10:01:27;13.77;;;12.50;;
36185;SDS011;22228;53.222;7.446;2023-03-21T10:03:52;14.13;;;12.70;;
36185;SDS011;22228;53.222;7.446;2023-03-21T10:06:14;14.77;;;13.23;;
36185;SDS011;22228;53.222;7.446;2023-03-21T10:08:37;13.40;;;12.13;;
36185;SDS011;22228;53.222;7.446;2023-03-21T10:11:00;13.83;;;12.33;;
36185;SDS011;22228;53.222;7.446;2023-03-21T10:13:26;13.90;;;12.40;;
36185;SDS011;22228;53.222;7.446;2023-03-21T10:15:52;14.23;;;12.70;;
36185;SDS011;22228;53.222;7.446;2023-03-21T10:18:18;16.63;;;14.30;;
36185;SDS011;22228;53.222;7.446;2023-03-21T10:20:42;18.60;;;15.33;;
36185;SDS011;22228;53.222;7.446;2023-03-21T10:23:02;15.70;;;14.13;;
36185;SDS011;22228;53.222;7.446;2023-03-21T10:25:27;15.33;;;13.73;;
36185;SDS011;22228;53.222;7.446;2023-03-21T10:27:50;14.63;;;13.13;;
36185;SDS011;22228;53.222;7.446;2023-03-21T10:30:16;15.67;;;13.73;;
36185;SDS011;22228;53.222;7.446;2023-03-21T10:32:42;14.53;;;13.13;;
36185;SDS011;22228;53.222;7.446;2023-03-21T10:35:03;16.33;;;13.40;;
36185;SDS011;22228;53.222;7.446;2023-03-21T10:37:24;17.90;;;14.23;;
36185;SDS011;22228;53.222;7.446;2023-03-21T10:39:45;15.27;;;13.67;;
36185;SDS011;22228;53.222;7.446;2023-03-21T10:42:10;16.80;;;15.00;;
36185;SDS011;22228;53.222;7.446;2023-03-21T10:44:39;21.00;;;16.40;;
36185;SDS011;22228;53.222;7.446;2023-03-21T10:47:07;20.07;;;16.97;;
36185;SDS011;22228;53.222;7.446;2023-03-21T10:49:28;21.57;;;17.60;;
36185;SDS011;22228;53.222;7.446;2023-03-21T10:51:50;22.87;;;18.97;;
36185;SDS011;22228;53.222;7.446;2023-03-21T10:54:12;22.50;;;18.33;;
36185;SDS011;22228;53.222;7.446;2023-03-21T10:56:35;22.07;;;19.70;;
36185;SDS011;22228;53.222;7.446;2023-03-21T10:58:58;27.27;;;20.47;;
36185;SDS011;22228;53.222;7.446;2023-03-21T11:01:24;28.63;;;21.60;;
36185;SDS011;22228;53.222;7.446;2023-03-21T11:03:48;28.60;;;22.53;;
36185;SDS011;22228;53.222;7.446;2023-03-21T11:06:16;25.37;;;21.00;;
36185;SDS011;22228;53.222;7.446;2023-03-21T11:08:46;29.40;;;22.17;;
36185;SDS011;22228;53.222;7.446;2023-03-21T11:11:09;31.33;;;22.87;;
36185;SDS011;22228;53.222;7.446;2023-03-21T11:13:36;27.50;;;20.53;;
36185;SDS011;22228;53.222;7.446;2023-03-21T11:16:02;30.70;;;22.70;;
36185;SDS011;22228;53.222;7.446;2023-03-21T11:18:26;26.13;;;23.03;;
36185;SDS011;22228;53.222;7.446;2023-03-21T11:20:51;27.00;;;22.47;;
36185;SDS011;22228;53.222;7.446;2023-03-21T11:23:13;25.03;;;21.33;;
36185;SDS011;22228;53.222;7.446;2023-03-21T11:25:34;29.67;;;21.63;;
36185;SDS011;22228;53.222;7.446;2023-03-21T11:27:57;32.07;;;22.37;;
36185;SDS011;22228;53.222;7.446;2023-03-21T11:30:24;25.20;;;20.97;;
36185;SDS011;22228;53.222;7.446;2023-03-21T11:32:49;28.50;;;21.47;;
36185;SDS011;22228;53.222;7.446;2023-03-21T11:35:13;30.43;;;23.50;;
36185;SDS011;22228;53.222;7.446;2023-03-21T11:37:39;27.80;;;22.67;;
36185;SDS011;22228;53.222;7.446;2023-03-21T11:40:05;27.37;;;22.23;;
36185;SDS011;22228;53.222;7.446;2023-03-21T11:42:40;32.87;;;22.70;;
36185;SDS011;22228;53.222;7.446;2023-03-21T11:47:51;27.43;;;19.40;;
36185;SDS011;22228;53.222;7.446;2023-03-21T11:50:16;24.13;;;20.40;;
36185;SDS011;22228;53.222;7.446;2023-03-21T11:52:40;23.40;;;20.03;;
36185;SDS011;22228;53.222;7.446;2023-03-21T11:55:12;21.73;;;18.77;;
36185;SDS011;22228;53.222;7.446;2023-03-21T11:57:47;24.27;;;18.80;;
36185;SDS011;22228;53.222;7.446;2023-03-21T12:00:16;21.53;;;19.37;;
36185;SDS011;22228;53.222;7.446;2023-03-21T12:02:52;21.93;;;19.50;;
36185;SDS011;22228;53.222;7.446;2023-03-21T12:05:25;21.33;;;17.37;;
36185;SDS011;22228;53.222;7.446;2023-03-21T12:07:50;18.30;;;16.33;;
36185;SDS011;22228;53.222;7.446;2023-03-21T12:10:25;17.90;;;16.00;;
36185;SDS011;22228;53.222;7.446;2023-03-21T12:12:52;18.37;;;14.63;;
36185;SDS011;22228;53.222;7.446;2023-03-21T12:15:18;18.17;;;15.17;;
36185;SDS011;22228;53.222;7.446;2023-03-21T12:17:46;19.83;;;15.17;;
36185;SDS011;22228;53.222;7.446;2023-03-21T12:20:18;17.20;;;14.93;;
36185;SDS011;22228;53.222;7.446;2023-03-21T12:22:48;18.13;;;15.30;;
36185;SDS011;22228;53.222;7.446;2023-03-21T12:25:16;20.60;;;15.67;;
36185;SDS011;22228;53.222;7.446;2023-03-21T12:27:42;19.00;;;14.67;;
36185;SDS011;22228;53.222;7.446;2023-03-21T12:30:14;20.57;;;15.80;;
36185;SDS011;22228;53.222;7.446;2023-03-21T12:32:47;19.57;;;16.17;;
36185;SDS011;22228;53.222;7.446;2023-03-21T12:35:22;20.60;;;15.70;;
36185;SDS011;22228;53.222;7.446;2023-03-21T12:37:51;17.30;;;15.47;;
36185;SDS011;22228;53.222;7.446;2023-03-21T12:40:24;17.07;;;14.90;;
36185;SDS011;22228;53.222;7.446;2023-03-21T12:42:57;16.57;;;14.80;;
36185;SDS011;22228;53.222;7.446;2023-03-21T12:45:30;16.77;;;15.07;;
36185;SDS011;22228;53.222;7.446;2023-03-21T12:47:55;17.80;;;15.03;;
36185;SDS011;22228;53.222;7.446;2023-03-21T12:50:25;19.63;;;15.07;;
36185;SDS011;22228;53.222;7.446;2023-03-21T12:52:51;16.93;;;13.60;;
36185;SDS011;22228;53.222;7.446;2023-03-21T12:55:15;15.93;;;12.53;;
36185;SDS011;22228;53.222;7.446;2023-03-21T12:57:41;15.03;;;13.17;;
36185;SDS011;22228;53.222;7.446;2023-03-21T13:00:09;23.27;;;14.43;;
36185;SDS011;22228;53.222;7.446;2023-03-21T13:02:36;15.57;;;13.23;;
36185;SDS011;22228;53.222;7.446;2023-03-21T13:05:02;14.47;;;12.53;;
36185;SDS011;22228;53.222;7.446;2023-03-21T13:07:31;14.87;;;12.70;;
36185;SDS011;22228;53.222;7.446;2023-03-21T13:09:56;15.37;;;12.37;;
36185;SDS011;22228;53.222;7.446;2023-03-21T13:12:24;13.67;;;11.30;;
36185;SDS011;22228;53.222;7.446;2023-03-21T13:15:06;15.27;;;11.53;;
36185;SDS011;22228;53.222;7.446;2023-03-21T13:17:42;12.80;;;10.13;;
36185;SDS011;22228;53.222;7.446;2023-03-21T13:20:08;16.17;;;11.03;;
36185;SDS011;22228;53.222;7.446;2023-03-21T13:22:39;11.80;;;9.73;;
36185;SDS011;22228;53.222;7.446;2023-03-21T13:25:02;12.83;;;8.77;;
36185;SDS011;22228;53.222;7.446;2023-03-21T13:27:25;11.77;;;9.27;;
36185;SDS011;22228;53.222;7.446;2023-03-21T13:29:49;13.87;;;8.37;;
36185;SDS011;22228;53.222;7.446;2023-03-21T13:32:15;11.03;;;8.87;;
36185;SDS011;22228;53.222;7.446;2023-03-21T13:34:48;11.40;;;8.50;;
36185;SDS011;22228;53.222;7.446;2023-03-21T13:37:14;9.57;;;8.17;;
36185;SDS011;22228;53.222;7.446;2023-03-21T13:39:38;13.87;;;8.50;;
36185;SDS011;22228;53.222;7.446;2023-03-21T13:42:04;8.83;;;7.50;;
36185;SDS011;22228;53.222;7.446;2023-03-21T13:44:32;10.57;;;7.77;;
36185;SDS011;22228;53.222;7.446;2023-03-21T13:47:00;9.23;;;7.33;;
36185;SDS011;22228;53.222;7.446;2023-03-21T13:49:26;11.23;;;8.43;;
36185;SDS011;22228;53.222;7.446;2023-03-21T13:51:50;11.10;;;8.23;;
36185;SDS011;22228;53.222;7.446;2023-03-21T13:54:16;8.90;;;7.53;;
36185;SDS011;22228;53.222;7.446;2023-03-21T13:56:51;13.53;;;8.53;;
36185;SDS011;22228;53.222;7.446;2023-03-21T13:59:16;9.57;;;7.80;;
36185;SDS011;22228;53.222;7.446;2023-03-21T14:01:39;10.17;;;8.10;;
36185;SDS011;22228;53.222;7.446;2023-03-21T14:04:03;11.17;;;8.53;;
36185;SDS011;22228;53.222;7.446;2023-03-21T14:06:37;10.53;;;7.97;;
36185;SDS011;22228;53.222;7.446;2023-03-21T14:09:02;10.33;;;7.90;;
36185;SDS011;22228;53.222;7.446;2023-03-21T14:11:24;9.50;;;7.30;;
36185;SDS011;22228;53.222;7.446;2023-03-21T14:13:46;10.30;;;8.60;;
36185;SDS011;22228;53.222;7.446;2023-03-21T14:16:09;10.97;;;7.43;;
36185;SDS011;22228;53.222;7.446;2023-03-21T14:18:38;10.23;;;7.13;;
36185;SDS011;22228;53.222;7.446;2023-03-21T14:21:01;10.67;;;7.37;;
36185;SDS011;22228;53.222;7.446;2023-03-21T14:23:22;8.83;;;7.63;;
36185;SDS011;22228;53.222;7.446;2023-03-21T14:25:43;11.73;;;7.30;;
36185;SDS011;22228;53.222;7.446;2023-03-21T14:28:07;10.40;;;7.37;;
36185;SDS011;22228;53.222;7.446;2023-03-21T14:30:35;12.03;;;7.57;;
36185;SDS011;22228;53.222;7.446;2023-03-21T14:32:57;10.63;;;7.47;;
36185;SDS011;22228;53.222;7.446;2023-03-21T14:35:20;10.27;;;7.67;;
36185;SDS011;22228;53.222;7.446;2023-03-21T14:37:42;12.50;;;7.63;;
36185;SDS011;22228;53.222;7.446;2023-03-21T14:40:05;8.40;;;6.90;;
36185;SDS011;22228;53.222;7.446;2023-03-21T14:42:31;10.10;;;7.97;;
36185;SDS011;22228;53.222;7.446;2023-03-21T14:44:53;9.10;;;7.60;;
36185;SDS011;22228;53.222;7.446;2023-03-21T14:47:19;9.03;;;7.63;;
36185;SDS011;22228;53.222;7.446;2023-03-21T14:49:41;11.37;;;8.17;;
36185;SDS011;22228;53.222;7.446;2023-03-21T14:52:02;12.37;;;8.23;;
36185;SDS011;22228;53.222;7.446;2023-03-21T14:54:26;10.73;;;7.93;;
36185;SDS011;22228;53.222;7.446;2023-03-21T14:56:48;11.67;;;8.00;;
36185;SDS011;22228;53.222;7.446;2023-03-21T14:59:11;9.77;;;8.53;;
36185;SDS011;22228;53.222;7.446;2023-03-21T15:01:34;10.50;;;8.43;;
36185;SDS011;22228;53.222;7.446;2023-03-21T15:03:56;11.07;;;8.60;;
36185;SDS011;22228;53.222;7.446;2023-03-21T15:06:18;9.53;;;8.50;;
36185;SDS011;22228;53.222;7.446;2023-03-21T15:11:10;12.27;;;8.67;;
36185;SDS011;22228;53.222;7.446;2023-03-21T15:13:32;11.57;;;8.83;;
36185;SDS011;22228;53.222;7.446;2023-03-21T15:15:55;11.83;;;8.93;;
36185;SDS011;22228;53.222;7.446;2023-03-21T15:18:16;13.33;;;8.27;;
36185;SDS011;22228;53.222;7.446;2023-03-21T15:20:40;12.07;;;9.00;;
36185;SDS011;22228;53.222;7.446;2023-03-21T15:23:02;11.73;;;8.73;;
36185;SDS011;22228;53.222;7.446;2023-03-21T15:25:26;9.77;;;8.27;;
36185;SDS011;22228;53.222;7.446;2023-03-21T15:27:49;11.37;;;8.37;;
36185;SDS011;22228;53.222;7.446;2023-03-21T15:30:20;10.40;;;9.17;;
36185;SDS011;22228;53.222;7.446;2023-03-21T15:32:43;10.23;;;8.43;;
36185;SDS011;22228;53.222;7.446;2023-03-21T15:35:05;10.73;;;8.33;;
36185;SDS011;22228;53.222;7.446;2023-03-21T15:37:33;12.13;;;9.10;;
36185;SDS011;22228;53.222;7.446;2023-03-21T15:40:04;11.60;;;8.33;;
36185;SDS011;22228;53.222;7.446;2023-03-21T15:42:28;12.40;;;8.93;;
36185;SDS011;22228;53.222;7.446;2023-03-21T15:44:54;10.13;;;8.60;;
36185;SDS011;22228;53.222;7.446;2023-03-21T15:47:15;12.17;;;9.40;;
36185;SDS011;22228;53.222;7.446;2023-03-21T15:49:53;10.00;;;7.90;;
36185;SDS011;22228;53.222;7.446;2023-03-21T15:52:14;12.57;;;8.67;;
36185;SDS011;22228;53.222;7.446;2023-03-21T15:54:42;9.07;;;7.60;;
36185;SDS011;22228;53.222;7.446;2023-03-21T15:57:14;8.53;;;7.30;;
36185;SDS011;22228;53.222;7.446;2023-03-21T15:59:39;9.03;;;8.10;;
36185;SDS011;22228;53.222;7.446;2023-03-21T16:02:00;10.93;;;7.83;;
36185;SDS011;22228;53.222;7.446;2023-03-21T16:04:21;9.10;;;7.53;;
36185;SDS011;22228;53.222;7.446;2023-03-21T16:06:49;8.17;;;7.47;;
36185;SDS011;22228;53.222;7.446;2023-03-21T16:09:12;10.00;;;7.30;;
36185;SDS011;22228;53.222;7.446;2023-03-21T16:11:41;9.30;;;7.43;;
36185;SDS011;22228;53.222;7.446;2023-03-21T16:14:02;8.40;;;7.30;;
36185;SDS011;22228;53.222;7.446;2023-03-21T16:16:24;9.63;;;6.90;;
36185;SDS011;22228;53.222;7.446;2023-03-21T16:18:45;10.03;;;7.53;;
36185;SDS011;22228;53.222;7.446;2023-03-21T16:21:08;8.93;;;7.60;;
36185;SDS011;22228;53.222;7.446;2023-03-21T16:23:28;9.27;;;7.73;;
36185;SDS011;22228;53.222;7.446;2023-03-21T16:25:49;11.30;;;7.97;;
36185;SDS011;22228;53.222;7.446;2023-03-21T16:28:16;9.87;;;7.70;;
36185;SDS011;22228;53.222;7.446;2023-03-21T16:30:37;8.30;;;7.50;;
36185;SDS011;22228;53.222;7.446;2023-03-21T16:32:57;8.83;;;7.40;;
36185;SDS011;22228;53.222;7.446;2023-03-21T16:35:18;9.60;;;7.30;;
36185;SDS011;22228;53.222;7.446;2023-03-21T16:37:39;8.57;;;7.67;;
36185;SDS011;22228;53.222;7.446;2023-03-21T16:39:59;9.13;;;7.30;;
36185;SDS011;22228;53.222;7.446;2023-03-21T16:42:20;8.70;;;7.10;;
36185;SDS011;22228;53.222;7.446;2023-03-21T16:44:42;8.73;;;7.83;;
36185;SDS011;22228;53.222;7.446;2023-03-21T16:47:02;11.20;;;7.93;;
36185;SDS011;22228;53.222;7.446;2023-03-21T16:49:24;10.60;;;7.60;;
36185;SDS011;22228;53.222;7.446;2023-03-21T16:51:45;13.67;;;7.17;;
36185;SDS011;22228;53.222;7.446;2023-03-21T16:54:06;10.93;;;7.60;;
36185;SDS011;22228;53.222;7.446;2023-03-21T16:56:26;9.57;;;7.23;;
36185;SDS011;22228;53.222;7.446;2023-03-21T17:01:14;13.03;;;7.63;;